Afton, Virginia
Current Conditions -  °F | °C
As of 11:15 PM on Thursday 20 Nov 2014 (Local Time) from KW13 Reporting Station
Clear Clear  
Wind Chill: 28°   Ceiling: Unl
Heat Index: 33°   Visibility: 10mi
Dew Point: 13°   Wind: 6mph
Humidity: 43%   Direction: 250°WSW
Pressure: 30.07"   Gusts: NA
Location:  38°N, 78.78°W
Report Text: KW13 210415Z AUTO 25005KT 10SM CLR 01/M11 A3007 RMK AO1 T00081106
Loading
Personal Weather Stations






























Interactive Weather Map New forecast layout! Learn more

10-Day Weather Forecast

Advertisements
Track Severe Weather on mobile